Time;durP1;ratioP1;P1;durP2;ratioP2;P2;SDS_P1;SDS_P2;PMS_P1;PMS_P2;Temp;Humidity;BMP_temperature;BMP_pressure;BME280_temperature;BME280_humidity;BME280_pressure;Samples;Min_cycle;Max_cycle;Signal;HPM_P1;HPM_P2
2022/03/30 00:01:55;;;;;;;23.17;14.65;;;5.90;99.90;;;;;;5073951;28;20127;-62
2022/03/30 00:04:21;;;;;;;27.88;15.30;;;5.80;99.90;;;;;;5073794;28;20067;-62
2022/03/30 00:06:47;;;;;;;25.20;14.88;;;5.70;99.90;;;;;;5073770;28;20039;-62
2022/03/30 00:09:13;;;;;;;28.38;15.48;;;5.70;99.90;;;;;;5073594;28;20067;-61
2022/03/30 00:11:38;;;;;;;27.75;15.13;;;5.80;99.90;;;;;;5074130;28;20417;-62
2022/03/30 00:14:05;;;;;;;28.15;15.30;;;5.70;99.90;;;;;;5074122;28;20453;-62
2022/03/30 00:16:30;;;;;;;25.52;14.75;;;5.90;99.90;;;;;;5073818;28;20076;-61
2022/03/30 00:18:56;;;;;;;29.88;14.65;;;5.80;99.90;;;;;;5073589;28;20121;-62
2022/03/30 00:21:22;;;;;;;28.88;14.95;;;5.80;99.90;;;;;;5073407;28;20064;-62
2022/03/30 00:23:48;;;;;;;32.15;14.50;;;5.80;99.90;;;;;;5073411;28;20063;-63
2022/03/30 00:26:13;;;;;;;26.48;15.35;;;5.90;99.90;;;;;;5073202;28;20111;-62
2022/03/30 00:28:39;;;;;;;27.52;15.80;;;5.80;99.90;;;;;;5073336;28;20043;-63
2022/03/30 00:31:05;;;;;;;28.55;16.13;;;5.90;99.90;;;;;;5073661;28;20043;-62
2022/03/30 00:33:30;;;;;;;29.83;17.02;;;5.80;99.90;;;;;;5073033;28;20046;-61
2022/03/30 00:35:56;;;;;;;26.98;17.30;;;5.80;99.90;;;;;;5073220;28;20094;-61
2022/03/30 00:38:22;;;;;;;32.63;17.73;;;5.90;99.90;;;;;;5072998;28;20101;-62
2022/03/30 00:40:48;;;;;;;33.20;16.83;;;5.90;99.90;;;;;;5073101;28;20032;-64
2022/03/30 00:43:14;;;;;;;31.20;16.90;;;5.90;99.90;;;;;;5073058;28;20047;-63
2022/03/30 00:45:40;;;;;;;29.27;16.75;;;5.90;99.90;;;;;;5072818;28;20044;-62
2022/03/30 00:48:07;;;;;;;25.67;15.63;;;5.90;99.90;;;;;;5071688;28;20047;-62
2022/03/30 00:50:33;;;;;;;25.42;15.02;;;6.00;99.90;;;;;;5072813;28;20067;-62
2022/03/30 00:52:59;;;;;;;25.92;15.63;;;6.00;99.90;;;;;;5072807;28;20608;-62
2022/03/30 00:55:25;;;;;;;27.33;15.93;;;6.00;99.90;;;;;;5071716;28;20128;-61
2022/03/30 00:57:53;;;;;;;29.33;16.17;;;6.00;99.90;;;;;;5072849;28;20055;-62
2022/03/30 01:00:19;;;;;;;29.45;16.73;;;6.10;99.90;;;;;;5072558;28;20056;-62
2022/03/30 01:02:46;;;;;;;25.48;15.05;;;6.00;99.90;;;;;;5073016;28;20123;-61
2022/03/30 01:05:13;;;;;;;26.45;14.57;;;6.00;99.90;;;;;;5072647;28;20044;-61
2022/03/30 01:07:39;;;;;;;27.20;14.18;;;6.10;99.90;;;;;;5072638;28;20043;-61
2022/03/30 01:10:08;;;;;;;30.83;14.95;;;6.10;99.90;;;;;;5072960;28;20036;-62
2022/03/30 01:12:38;;;;;;;29.30;14.82;;;6.10;99.90;;;;;;5072689;28;20077;-62
2022/03/30 01:15:06;;;;;;;25.17;14.38;;;6.20;99.90;;;;;;5072552;28;20091;-61
2022/03/30 01:17:33;;;;;;;27.88;15.70;;;6.10;99.90;;;;;;5072372;28;20083;-61
2022/03/30 01:19:58;;;;;;;30.80;14.52;;;6.00;99.90;;;;;;5072172;28;20047;-62
2022/03/30 01:22:24;;;;;;;29.85;15.40;;;6.00;99.90;;;;;;5072466;28;20402;-61
2022/03/30 01:24:50;;;;;;;35.13;15.80;;;6.00;99.90;;;;;;5072070;28;20097;-61
2022/03/30 01:27:15;;;;;;;31.30;15.60;;;6.00;99.90;;;;;;5072384;28;20048;-61
2022/03/30 01:32:28;;;;;;;28.02;15.50;;;6.10;99.90;;;;;;5071960;28;20041;-62
2022/03/30 01:34:59;;;;;;;39.75;16.65;;;6.10;99.90;;;;;;5072374;28;20054;-61
2022/03/30 01:37:28;;;;;;;30.55;14.38;;;6.20;99.90;;;;;;5072179;28;20048;-61
2022/03/30 01:39:58;;;;;;;33.33;16.57;;;6.10;99.90;;;;;;5072218;28;20060;-61
2022/03/30 01:42:25;;;;;;;30.92;14.77;;;6.10;99.90;;;;;;5071984;28;20397;-62
2022/03/30 01:44:52;;;;;;;33.17;15.90;;;6.10;99.90;;;;;;5071905;28;20052;-62
2022/03/30 01:47:18;;;;;;;35.65;15.95;;;6.00;99.90;;;;;;5071969;28;20097;-62
2022/03/30 01:49:45;;;;;;;31.90;16.20;;;6.00;99.90;;;;;;5072324;28;20041;-61
2022/03/30 01:52:10;;;;;;;30.63;15.13;;;6.00;99.90;;;;;;5071982;28;20127;-62
2022/03/30 01:54:39;;;;;;;33.35;17.40;;;6.00;99.90;;;;;;5070704;28;20131;-61
2022/03/30 01:57:07;;;;;;;28.63;16.38;;;6.10;99.90;;;;;;5071806;28;20139;-62
2022/03/30 01:59:33;;;;;;;27.38;16.05;;;6.10;99.90;;;;;;5071489;28;20052;-62
2022/03/30 02:01:59;;;;;;;28.83;15.88;;;6.10;99.90;;;;;;5071950;28;20047;-61
2022/03/30 02:04:26;;;;;;;30.83;17.02;;;6.10;99.90;;;;;;5071648;28;20102;-61
2022/03/30 02:06:51;;;;;;;35.35;15.20;;;6.10;99.90;;;;;;5071635;28;20505;-62
2022/03/30 02:09:17;;;;;;;34.58;15.75;;;6.20;99.90;;;;;;5071628;28;20032;-61
2022/03/30 02:11:43;;;;;;;26.92;15.23;;;6.30;99.90;;;;;;5071611;28;20493;-61
2022/03/30 02:14:09;;;;;;;35.33;16.38;;;6.30;99.90;;;;;;5070397;28;20098;-62
2022/03/30 02:16:35;;;;;;;28.27;15.18;;;6.20;99.90;;;;;;5072083;28;20584;-60
2022/03/30 02:19:01;;;;;;;31.58;15.98;;;6.20;99.90;;;;;;5071875;28;20036;-61
2022/03/30 02:21:27;;;;;;;31.42;16.20;;;6.30;99.90;;;;;;5071346;28;20479;-61
2022/03/30 02:23:52;;;;;;;33.00;16.33;;;6.30;99.90;;;;;;5071474;28;20036;-61
2022/03/30 02:26:18;;;;;;;29.42;14.38;;;6.40;99.90;;;;;;5071456;28;20029;-61
2022/03/30 02:28:51;;;;;;;37.58;16.52;;;6.40;99.90;;;;;;5071404;28;20119;-60
2022/03/30 02:31:23;;;;;;;33.55;14.40;;;6.40;99.90;;;;;;5072130;28;20500;-60
2022/03/30 02:33:49;;;;;;;28.25;14.20;;;6.40;99.90;;;;;;5071353;28;20507;-61
2022/03/30 02:36:15;;;;;;;25.42;12.68;;;6.40;99.90;;;;;;5071494;28;20040;-61
2022/03/30 02:38:42;;;;;;;19.02;9.02;;;6.40;99.90;;;;;;5071816;28;20052;-61
2022/03/30 02:41:08;;;;;;;19.23;9.05;;;6.50;99.90;;;;;;5072163;28;20040;-61
2022/03/30 02:43:35;;;;;;;10.18;7.30;;;6.50;99.90;;;;;;5075625;28;20265;-60
2022/03/30 02:46:00;;;;;;;14.02;6.50;;;6.60;99.90;;;;;;5075091;28;20487;-61
2022/03/30 02:48:29;;;;;;;12.75;5.57;;;6.60;99.90;;;;;;5075685;28;20032;-61
2022/03/30 02:50:57;;;;;;;7.85;3.88;;;6.60;99.90;;;;;;5075211;28;20097;-61
2022/03/30 02:53:24;;;;;;;8.10;3.47;;;6.50;99.90;;;;;;5075128;28;20048;-61
2022/03/30 02:55:50;;;;;;;10.43;2.58;;;6.40;99.90;;;;;;5075035;28;20036;-61
2022/03/30 02:58:16;;;;;;;6.18;1.70;;;6.50;99.90;;;;;;5075009;28;20501;-60
2022/03/30 03:00:42;;;;;;;4.13;1.38;;;6.50;99.90;;;;;;5075043;28;20057;-61
2022/03/30 03:03:09;;;;;;;3.80;1.20;;;6.50;99.90;;;;;;5075241;28;20620;-61
2022/03/30 03:05:36;;;;;;;4.78;1.17;;;6.50;99.90;;;;;;5075103;28;20056;-61
2022/03/30 03:08:04;;;;;;;3.45;1.08;;;6.50;99.90;;;;;;5075187;28;20358;-61
2022/03/30 03:10:30;;;;;;;5.22;1.17;;;6.40;99.90;;;;;;5075034;28;20040;-61
2022/03/30 03:12:56;;;;;;;3.83;1.02;;;6.50;99.90;;;;;;5075152;28;20041;-61
2022/03/30 03:15:22;;;;;;;2.83;1.10;;;6.40;99.90;;;;;;5074976;28;20677;-61
2022/03/30 03:17:48;;;;;;;4.57;1.27;;;6.40;99.90;;;;;;5073630;28;20501;-61
2022/03/30 03:20:14;;;;;;;3.17;1.13;;;6.40;99.90;;;;;;5074714;28;20047;-61
2022/03/30 03:22:41;;;;;;;3.83;0.90;;;6.50;99.90;;;;;;5074846;28;20086;-61
2022/03/30 03:25:08;;;;;;;2.45;0.95;;;6.50;99.90;;;;;;5074975;28;20045;-60
2022/03/30 03:27:34;;;;;;;2.35;0.70;;;6.50;99.90;;;;;;5074694;28;20064;-61
2022/03/30 03:30:00;;;;;;;6.47;0.95;;;6.50;99.90;;;;;;5074500;28;20075;-60
2022/03/30 03:32:26;;;;;;;1.92;1.00;;;6.50;99.90;;;;;;5074634;28;20120;-61
2022/03/30 03:34:52;;;;;;;2.85;0.70;;;6.50;99.90;;;;;;5074375;28;20123;-61
2022/03/30 03:37:18;;;;;;;3.38;1.02;;;6.50;99.90;;;;;;5074206;28;20084;-60
2022/03/30 03:39:44;;;;;;;0.95;0.50;;;6.40;99.90;;;;;;5074133;28;20044;-61
2022/03/30 03:42:10;;;;;;;1.65;0.60;;;6.40;99.90;;;;;;5074389;28;20040;-61
2022/03/30 03:44:35;;;;;;;1.38;0.40;;;6.50;99.90;;;;;;5074167;28;20120;-61
2022/03/30 03:47:02;;;;;;;0.65;0.40;;;6.50;99.90;;;;;;5073994;28;20123;-61
2022/03/30 03:49:29;;;;;;;1.05;0.40;;;6.30;99.90;;;;;;5074177;28;20044;-61
2022/03/30 03:51:55;;;;;;;2.40;0.40;;;6.30;99.90;;;;;;5073709;28;20032;-62
2022/03/30 03:54:20;;;;;;;2.75;0.40;;;6.30;99.90;;;;;;5074307;28;20429;-61
2022/03/30 03:56:47;;;;;;;2.10;0.60;;;6.30;99.90;;;;;;5074118;28;20476;-61
2022/03/30 03:59:13;;;;;;;2.63;0.40;;;6.30;99.90;;;;;;5074200;28;20120;-61
2022/03/30 04:01:38;;;;;;;1.02;0.50;;;6.20;99.90;;;;;;5073517;28;20136;-61
2022/03/30 04:04:05;;;;;;;7.53;0.50;;;6.20;99.90;;;;;;5074197;28;20044;-61
2022/03/30 04:06:31;;;;;;;2.13;0.95;;;6.20;99.90;;;;;;5073676;28;20052;-61
2022/03/30 04:08:56;;;;;;;2.83;0.30;;;6.20;99.90;;;;;;5072769;28;20048;-61
2022/03/30 04:11:22;;;;;;;2.08;0.55;;;6.10;99.90;;;;;;5073950;28;20476;-62
2022/03/30 04:13:49;;;;;;;4.68;0.85;;;6.10;99.90;;;;;;5073774;28;20040;-61
2022/03/30 04:16:16;;;;;;;1.52;0.40;;;6.20;99.90;;;;;;5073601;28;20125;-62
2022/03/30 04:18:42;;;;;;;4.03;0.98;;;6.20;99.90;;;;;;5073671;28;20360;-61
2022/03/30 04:21:08;;;;;;;1.25;0.60;;;6.20;99.90;;;;;;5073424;28;20036;-62
2022/03/30 04:23:34;;;;;;;1.73;0.65;;;6.10;99.90;;;;;;5073644;28;20052;-61
2022/03/30 04:26:00;;;;;;;1.30;0.60;;;6.00;99.90;;;;;;5073473;28;20044;-61
2022/03/30 04:28:25;;;;;;;2.20;0.43;;;6.10;99.90;;;;;;5073485;28;20471;-61
2022/03/30 04:30:51;;;;;;;1.48;0.50;;;6.00;99.90;;;;;;5072053;28;20569;-61
2022/03/30 04:33:17;;;;;;;3.03;0.80;;;6.00;99.90;;;;;;5073252;28;20032;-61
2022/03/30 04:35:42;;;;;;;1.55;0.63;;;5.90;99.90;;;;;;5073122;28;20071;-61
2022/03/30 04:38:08;;;;;;;0.75;0.50;;;5.90;99.90;;;;;;5073356;28;20066;-62
2022/03/30 04:40:34;;;;;;;2.47;0.70;;;5.90;99.90;;;;;;5073207;28;20036;-62
2022/03/30 04:43:00;;;;;;;1.30;0.70;;;5.90;99.90;;;;;;5073018;28;20032;-61
2022/03/30 04:45:25;;;;;;;4.28;0.88;;;5.90;99.90;;;;;;5073298;28;20124;-62
2022/03/30 04:47:54;;;;;;;3.85;0.93;;;5.90;99.90;;;;;;5072896;28;20043;-62
2022/03/30 04:50:23;;;;;;;5.03;1.10;;;5.80;99.90;;;;;;5072888;28;20069;-62
2022/03/30 04:52:49;;;;;;;1.42;0.95;;;5.80;99.90;;;;;;5072876;28;20079;-61
2022/03/30 04:55:14;;;;;;;1.85;1.17;;;5.90;99.90;;;;;;5072988;28;20076;-61
2022/03/30 04:57:41;;;;;;;2.65;1.05;;;5.80;99.90;;;;;;5071705;28;20082;-62
2022/03/30 05:00:09;;;;;;;1.38;1.00;;;5.80;99.90;;;;;;5072557;28;20053;-61
2022/03/30 05:02:36;;;;;;;1.93;1.17;;;5.80;99.90;;;;;;5072622;28;20067;-61
2022/03/30 05:05:03;;;;;;;3.70;1.27;;;5.80;99.90;;;;;;5071715;28;20294;-61
2022/03/30 05:07:29;;;;;;;2.72;1.02;;;5.70;99.90;;;;;;5072563;28;20041;-61
2022/03/30 05:09:55;;;;;;;3.17;1.20;;;5.70;99.90;;;;;;5072713;28;20090;-62
2022/03/30 05:12:20;;;;;;;2.72;1.10;;;5.70;99.90;;;;;;5072622;28;20040;-61
2022/03/30 05:14:46;;;;;;;2.88;0.93;;;5.70;99.90;;;;;;5072368;28;20245;-61
2022/03/30 05:17:12;;;;;;;2.97;1.10;;;5.70;99.90;;;;;;5072578;28;20055;-61
2022/03/30 05:19:37;;;;;;;3.70;1.02;;;5.60;99.90;;;;;;5072888;28;20049;-61
2022/03/30 05:22:06;;;;;;;2.03;1.02;;;5.50;99.90;;;;;;5072420;28;20029;-61
2022/03/30 05:24:32;;;;;;;2.75;1.40;;;5.50;99.90;;;;;;5072637;28;20045;-61
2022/03/30 05:26:58;;;;;;;4.65;1.55;;;5.50;99.90;;;;;;5072593;28;20067;-62
2022/03/30 05:29:24;;;;;;;3.67;1.33;;;5.50;99.90;;;;;;5072063;28;20395;-61
2022/03/30 05:31:50;;;;;;;3.63;1.55;;;5.50;99.90;;;;;;5072058;28;20032;-61
2022/03/30 05:34:16;;;;;;;5.35;1.50;;;5.50;99.90;;;;;;5072245;28;20125;-62
2022/03/30 05:36:42;;;;;;;3.75;1.33;;;5.50;99.90;;;;;;5072144;28;20028;-61
2022/03/30 05:39:08;;;;;;;5.65;1.40;;;5.50;99.90;;;;;;5072136;28;20113;-62
2022/03/30 05:41:34;;;;;;;3.50;1.65;;;5.50;99.90;;;;;;5071985;28;20071;-61
2022/03/30 05:44:00;;;;;;;3.70;1.13;;;5.60;99.90;;;;;;5071835;28;20501;-61
2022/03/30 05:46:26;;;;;;;1.98;1.10;;;5.50;99.90;;;;;;5071827;28;20041;-61
2022/03/30 05:48:52;;;;;;;2.60;1.00;;;5.50;99.90;;;;;;5071880;28;20143;-61
2022/03/30 05:51:18;;;;;;;2.83;1.20;;;5.50;99.90;;;;;;5071939;28;20029;-61
2022/03/30 05:53:44;;;;;;;3.35;1.10;;;5.60;99.90;;;;;;5071887;28;20037;-62
2022/03/30 05:56:10;;;;;;;3.88;1.65;;;5.60;99.90;;;;;;5071859;28;20044;-62
2022/03/30 05:58:35;;;;;;;6.85;1.55;;;5.60;99.90;;;;;;5071867;28;20036;-61
2022/03/30 06:01:01;;;;;;;4.95;1.10;;;5.60;99.90;;;;;;5071766;28;20060;-61
2022/03/30 06:03:27;;;;;;;3.65;1.60;;;5.60;99.90;;;;;;5072019;28;20048;-61
2022/03/30 06:05:53;;;;;;;4.53;1.52;;;5.60;99.90;;;;;;5071677;28;20437;-61
2022/03/30 06:08:18;;;;;;;5.57;1.90;;;5.60;99.90;;;;;;5071770;28;20043;-61
2022/03/30 06:10:44;;;;;;;4.03;1.67;;;5.70;99.90;;;;;;5072066;28;20143;-61
2022/03/30 06:13:10;;;;;;;2.15;1.35;;;5.70;99.90;;;;;;5071754;28;20505;-61
2022/03/30 06:15:38;;;;;;;5.70;1.48;;;5.70;99.90;;;;;;5071371;28;20082;-61
2022/03/30 06:18:10;;;;;;;3.65;1.50;;;5.80;99.90;;;;;;5071530;28;20051;-61
2022/03/30 06:20:36;;;;;;;3.70;1.65;;;5.80;99.90;;;;;;5087373;28;20051;-61
2022/03/30 06:23:02;;;;;;;6.43;1.50;;;5.80;99.90;;;;;;5071550;28;20501;-63
2022/03/30 06:25:28;;;;;;;5.22;2.35;;;5.80;99.90;;;;;;5071470;28;20123;-62
2022/03/30 06:27:54;;;;;;;4.30;1.60;;;5.80;99.90;;;;;;5071631;28;20083;-62
2022/03/30 06:30:20;;;;;;;4.50;1.80;;;5.90;99.90;;;;;;5053607;28;20138;-61
2022/03/30 06:32:49;;;;;;;5.28;1.58;;;5.90;99.90;;;;;;5069998;28;20511;-61
2022/03/30 06:35:17;;;;;;;8.30;1.85;;;5.90;99.90;;;;;;5071590;28;20044;-60
2022/03/30 06:37:44;;;;;;;7.43;2.28;;;6.00;99.90;;;;;;5071406;28;20044;-60
2022/03/30 06:40:11;;;;;;;5.05;1.70;;;6.00;99.90;;;;;;5071506;28;20038;-61
2022/03/30 06:42:38;;;;;;;12.90;3.70;;;6.20;99.90;;;;;;5071439;28;20047;-61
2022/03/30 06:45:06;;;;;;;8.15;2.35;;;6.30;99.90;;;;;;5071187;28;20524;-61
2022/03/30 06:47:32;;;;;;;8.32;2.17;;;6.40;99.90;;;;;;5071447;28;20071;-61
2022/03/30 06:49:58;;;;;;;5.43;1.63;;;6.50;99.90;;;;;;5071456;28;20464;-61
2022/03/30 06:52:24;;;;;;;4.47;1.40;;;6.50;99.90;;;;;;5071469;28;20394;-61
2022/03/30 06:54:49;;;;;;;6.80;1.92;;;6.50;99.90;;;;;;5071478;28;20499;-61
2022/03/30 06:57:15;;;;;;;5.65;1.60;;;6.60;99.90;;;;;;5071234;28;20041;-61
2022/03/30 06:59:41;;;;;;;9.82;2.17;;;6.60;99.90;;;;;;5070953;28;20452;-60
2022/03/30 07:02:07;;;;;;;8.45;1.90;;;6.60;99.90;;;;;;5071316;28;20462;-61
2022/03/30 07:04:35;;;;;;;5.38;1.63;;;6.60;99.90;;;;;;5071062;28;20118;-61
2022/03/30 07:12:31;;;;;;;5.75;1.58;;;6.80;99.90;;;;;;5071251;28;20049;-62
2022/03/30 07:14:56;;;;;;;6.75;1.40;;;6.90;99.90;;;;;;5069670;28;20403;-61
2022/03/30 07:17:22;;;;;;;6.80;1.30;;;7.00;99.90;;;;;;5071148;28;20065;-62
2022/03/30 07:19:48;;;;;;;6.70;1.45;;;6.90;99.90;;;;;;5070921;28;20048;-62
2022/03/30 07:22:14;;;;;;;7.00;1.65;;;7.00;99.90;;;;;;5070831;28;20056;-62
2022/03/30 07:24:41;;;;;;;6.43;1.40;;;7.10;99.90;;;;;;5070966;28;20044;-62
2022/03/30 07:27:07;;;;;;;5.43;1.40;;;7.30;99.90;;;;;;5071793;28;20068;-62
2022/03/30 07:29:33;;;;;;;5.65;1.42;;;7.50;99.90;;;;;;5074748;28;20033;-62
2022/03/30 07:31:58;;;;;;;8.45;1.65;;;7.50;99.90;;;;;;5074547;28;20037;-61
2022/03/30 07:34:24;;;;;;;10.27;1.58;;;7.60;99.90;;;;;;5074581;28;20509;-61
2022/03/30 07:36:50;;;;;;;3.97;1.13;;;7.50;99.90;;;;;;5075093;28;20119;-61
2022/03/30 07:39:16;;;;;;;4.93;1.42;;;7.70;99.90;;;;;;5074378;28;20089;-61
2022/03/30 07:41:42;;;;;;;4.70;1.15;;;7.80;99.90;;;;;;5074590;28;20079;-61
2022/03/30 07:44:08;;;;;;;4.75;1.17;;;7.90;99.90;;;;;;5073181;28;20036;-61
2022/03/30 07:46:33;;;;;;;5.20;1.13;;;8.00;99.90;;;;;;5074154;28;20048;-61
2022/03/30 07:48:59;;;;;;;3.88;0.90;;;7.90;99.90;;;;;;5074018;28;20470;-61
2022/03/30 07:51:25;;;;;;;4.30;1.00;;;8.00;99.90;;;;;;5074064;28;20425;-61
2022/03/30 07:53:50;;;;;;;3.80;1.00;;;8.10;99.90;;;;;;5073904;28;20499;-61
2022/03/30 07:56:16;;;;;;;4.70;1.23;;;8.20;99.90;;;;;;5074291;28;20062;-61
2022/03/30 07:58:42;;;;;;;4.60;1.25;;;8.10;99.90;;;;;;5074059;28;20036;-61
2022/03/30 08:01:08;;;;;;;3.20;1.10;;;8.20;99.90;;;;;;5073735;28;20060;-61
2022/03/30 08:03:34;;;;;;;4.93;1.13;;;8.30;99.90;;;;;;5074132;28;20380;-61
2022/03/30 08:06:00;;;;;;;5.40;1.15;;;8.30;99.90;;;;;;5073814;28;20046;-60
2022/03/30 08:08:26;;;;;;;5.60;1.30;;;8.20;99.90;;;;;;5072191;28;20391;-61
2022/03/30 08:10:53;;;;;;;7.88;1.65;;;8.20;99.90;;;;;;5073945;28;20039;-61
2022/03/30 08:13:19;;;;;;;9.57;1.35;;;8.00;99.90;;;;;;5073991;28;20045;-61
2022/03/30 08:15:44;;;;;;;6.20;1.10;;;7.90;99.90;;;;;;5073817;28;20042;-61
2022/03/30 08:18:11;;;;;;;3.40;1.00;;;7.80;99.90;;;;;;5073853;28;20396;-61
2022/03/30 08:23:21;;;;;;;5.07;1.10;;;7.60;99.90;;;;;;5073653;28;20135;-61
2022/03/30 08:25:47;;;;;;;5.80;1.05;;;7.40;99.90;;;;;;5073491;28;20124;-61
2022/03/30 08:28:12;;;;;;;5.05;1.23;;;7.20;99.90;;;;;;5073326;28;20125;-61
2022/03/30 08:30:38;;;;;;;3.70;0.98;;;7.10;99.90;;;;;;5073440;28;20036;-61
2022/03/30 08:33:04;;;;;;;3.88;1.13;;;7.10;99.90;;;;;;5073176;28;20044;-61
2022/03/30 08:35:32;;;;;;;4.60;1.45;;;7.10;99.90;;;;;;5073194;28;20079;-61
2022/03/30 08:37:59;;;;;;;11.63;1.98;;;7.20;99.90;;;;;;5072908;28;20447;-61
2022/03/30 08:40:25;;;;;;;5.93;1.10;;;7.30;99.90;;;;;;5072509;28;20128;-61
2022/03/30 08:42:53;;;;;;;6.43;1.08;;;7.40;99.90;;;;;;5073255;28;20040;-61
2022/03/30 08:45:19;;;;;;;3.80;1.10;;;7.60;99.90;;;;;;5073093;28;20045;-61
2022/03/30 08:47:46;;;;;;;4.85;1.17;;;7.70;99.90;;;;;;5072915;28;20029;-61
2022/03/30 08:50:12;;;;;;;8.48;1.65;;;7.60;99.90;;;;;;5071618;28;20544;-61
2022/03/30 08:52:37;;;;;;;5.03;0.80;;;7.70;99.90;;;;;;5073188;28;20036;-62
2022/03/30 08:55:04;;;;;;;4.40;1.30;;;8.00;99.90;;;;;;5073045;28;20044;-61
2022/03/30 08:57:30;;;;;;;3.30;0.98;;;8.00;99.90;;;;;;5072818;28;20045;-61
2022/03/30 08:59:57;;;;;;;5.32;0.98;;;8.20;99.90;;;;;;5072649;28;20053;-61
2022/03/30 09:02:32;;;;;;;7.20;1.13;;;8.20;99.90;;;;;;5071248;28;20105;-61
2022/03/30 09:05:12;;;;;;;5.07;0.88;;;8.40;99.90;;;;;;5072790;28;20110;-61
2022/03/30 09:07:40;;;;;;;11.00;1.50;;;8.60;99.90;;;;;;5072704;28;20045;-61
2022/03/30 09:10:11;;;;;;;8.23;1.23;;;8.70;99.90;;;;;;5072551;28;20036;-62
2022/03/30 09:12:38;;;;;;;6.50;1.60;;;8.80;99.90;;;;;;5072553;28;20041;-61
2022/03/30 09:15:05;;;;;;;3.78;0.80;;;8.70;99.90;;;;;;5072459;28;20658;-62
2022/03/30 09:17:37;;;;;;;5.65;0.95;;;8.70;99.90;;;;;;5072333;28;20073;-61
2022/03/30 09:20:12;;;;;;;2.60;0.93;;;8.80;99.90;;;;;;5072471;28;20048;-61
2022/03/30 09:22:42;;;;;;;2.35;0.93;;;9.00;99.90;;;;;;5072401;28;20098;-62
2022/03/30 09:25:08;;;;;;;4.97;0.70;;;9.00;99.90;;;;;;5072101;28;20087;-61
2022/03/30 09:27:39;;;;;;;4.85;0.70;;;9.10;99.90;;;;;;5071270;28;20037;-62
2022/03/30 09:30:07;;;;;;;2.90;0.73;;;9.00;99.90;;;;;;5071156;28;20044;-61
2022/03/30 09:32:32;;;;;;;1.25;0.50;;;8.90;99.90;;;;;;5072184;28;20075;-61
2022/03/30 09:34:58;;;;;;;2.53;0.63;;;8.70;99.90;;;;;;5072269;28;20082;-61
2022/03/30 09:37:24;;;;;;;3.50;0.70;;;8.90;99.90;;;;;;5072167;28;20431;-61
2022/03/30 09:39:50;;;;;;;1.90;0.30;;;9.00;99.90;;;;;;5072096;28;20029;-61
2022/03/30 09:42:18;;;;;;;3.20;0.80;;;8.90;99.90;;;;;;5072323;28;20394;-62
2022/03/30 09:44:52;;;;;;;6.55;0.70;;;9.10;99.90;;;;;;5071923;28;20101;-61
2022/03/30 09:47:19;;;;;;;3.03;0.60;;;9.10;99.90;;;;;;5072022;28;20086;-61
2022/03/30 09:49:55;;;;;;;2.67;0.70;;;9.10;99.90;;;;;;5071634;28;20043;-61
2022/03/30 09:52:29;;;;;;;4.60;0.75;;;9.20;99.90;;;;;;5071803;28;20076;-62
2022/03/30 09:54:57;;;;;;;2.15;0.60;;;9.10;99.90;;;;;;5072020;28;20426;-62
2022/03/30 09:57:27;;;;;;;4.95;0.70;;;9.00;99.90;;;;;;5071864;28;20037;-62
2022/03/30 10:00:17;;;;;;;6.63;0.73;;;9.00;99.90;;;;;;5071561;28;20060;-61
2022/03/30 10:02:51;;;;;;;2.35;0.75;;;9.00;99.90;;;;;;5071789;28;20056;-61
2022/03/30 10:05:22;;;;;;;3.28;0.60;;;9.10;99.90;;;;;;5071575;28;20123;-61
2022/03/30 10:07:49;;;;;;;2.00;0.90;;;9.10;99.90;;;;;;5071854;28;20048;-61
2022/03/30 10:10:17;;;;;;;6.07;0.90;;;8.90;99.90;;;;;;5070340;28;20051;-61
2022/03/30 10:12:43;;;;;;;5.77;0.87;;;8.70;99.90;;;;;;5071644;28;20045;-62
2022/03/30 10:15:10;;;;;;;3.33;0.80;;;8.70;99.90;;;;;;5071524;28;20043;-61
2022/03/30 10:17:36;;;;;;;5.13;1.50;;;8.70;99.90;;;;;;5071273;28;20036;-61
2022/03/30 10:20:04;;;;;;;4.82;1.15;;;8.60;99.90;;;;;;5071755;28;20048;-61
2022/03/30 10:23:04;;;;;;;8.23;1.30;;;8.70;99.90;;;;;;5071694;28;20398;-62
2022/03/30 10:26:07;;;;;;;5.38;1.80;;;8.50;99.90;;;;;;5071529;28;20033;-61
2022/03/30 10:28:43;;;;;;;8.05;1.63;;;8.50;99.90;;;;;;5071516;28;20032;-61
2022/03/30 10:31:09;;;;;;;3.20;1.20;;;8.70;99.90;;;;;;5071774;28;20044;-62
2022/03/30 10:33:40;;;;;;;7.22;1.65;;;8.60;99.90;;;;;;5071630;28;20101;-61
2022/03/30 10:36:39;;;;;;;6.13;1.67;;;8.50;99.90;;;;;;5071274;28;20119;-61
2022/03/30 10:39:16;;;;;;;3.33;1.10;;;8.50;99.90;;;;;;5009508;28;20050;-61
2022/03/30 10:41:56;;;;;;;4.40;1.17;;;8.60;99.90;;;;;;5009378;28;20147;-61
2022/03/30 10:44:34;;;;;;;;;;;8.80;99.90;;;;;;5009799;28;20077;-61
2022/03/30 10:47:22;;;;;;;5.00;1.48;;;8.80;99.90;;;;;;5009446;28;20287;-61
2022/03/30 10:50:00;;;;;;;4.53;1.08;;;8.70;99.90;;;;;;5009375;28;20050;-61
2022/03/30 10:52:35;;;;;;;6.93;2.28;;;8.50;99.90;;;;;;5009347;28;20081;-62
2022/03/30 10:55:12;;;;;;;6.55;0.95;;;8.60;99.90;;;;;;5009357;28;20081;-61
2022/03/30 10:57:49;;;;;;;5.53;1.13;;;8.60;99.90;;;;;;5009333;28;20424;-62
2022/03/30 11:00:17;;;;;;;2.83;0.82;;;8.60;99.90;;;;;;5009198;28;20105;-61
2022/03/30 11:02:43;;;;;;;3.03;1.00;;;8.70;99.90;;;;;;5011068;28;20411;-61
2022/03/30 11:05:10;;;;;;;5.20;1.08;;;8.80;99.90;;;;;;5012816;28;20303;-61
2022/03/30 11:07:36;;;;;;;4.53;1.00;;;8.90;99.90;;;;;;4996771;28;20121;-61
2022/03/30 11:10:17;;;;;;;5.65;2.00;;;8.70;99.90;;;;;;5013118;28;20092;-61
2022/03/30 11:13:11;;;;;;;7.07;1.25;;;8.60;99.90;;;;;;5013025;28;20084;-61
2022/03/30 11:15:59;;;;;;;3.22;0.80;;;8.50;99.90;;;;;;5067955;28;20178;-62
2022/03/30 11:18:26;;;;;;;5.30;0.77;;;8.30;99.90;;;;;;5074489;28;20051;-61
2022/03/30 11:21:12;;;;;;;3.05;1.05;;;8.40;99.90;;;;;;5074714;28;20402;-61
2022/03/30 11:23:39;;;;;;;6.10;0.93;;;8.30;99.90;;;;;;5074727;28;20353;-61
2022/03/30 11:26:05;;;;;;;4.88;1.30;;;8.30;99.90;;;;;;5074572;28;20577;-61
2022/03/30 11:28:38;;;;;;;2.33;0.60;;;8.40;99.90;;;;;;5074705;28;20093;-61
2022/03/30 11:31:21;;;;;;;3.10;0.70;;;8.60;99.90;;;;;;5074363;28;20044;-62
2022/03/30 11:34:25;;;;;;;3.03;1.10;;;8.70;99.90;;;;;;5074629;28;20118;-61
2022/03/30 11:36:52;;;;;;;3.50;0.77;;;8.80;99.90;;;;;;5074219;28;20113;-61
2022/03/30 11:39:28;;;;;;;5.55;0.80;;;8.90;99.90;;;;;;5074356;28;20036;-62
2022/03/30 11:41:56;;;;;;;4.63;0.90;;;8.90;99.90;;;;;;5074191;28;20032;-61
2022/03/30 11:47:24;;;;;;;2.22;0.57;;;9.20;99.90;;;;;;5051894;28;20048;-61
2022/03/30 11:49:56;;;;;;;3.10;0.80;;;9.60;99.90;;;;;;5051831;28;20064;-61
2022/03/30 11:52:23;;;;;;;3.63;0.93;;;9.80;99.90;;;;;;5051778;28;20068;-61
2022/03/30 11:54:53;;;;;;;2.47;0.93;;;10.00;99.90;;;;;;5051791;28;20419;-61
2022/03/30 11:57:20;;;;;;;4.60;0.80;;;10.10;99.90;;;;;;5035023;28;20053;-61
2022/03/30 12:00:05;;;;;;;3.55;0.75;;;10.40;99.90;;;;;;5051536;28;20037;-61
2022/03/30 12:02:30;;;;;;;3.72;0.93;;;10.70;99.90;;;;;;5051453;28;20542;-61
2022/03/30 12:04:57;;;;;;;6.07;0.90;;;10.90;99.90;;;;;;5051789;28;20110;-61
2022/03/30 12:07:24;;;;;;;2.63;0.80;;;11.00;99.90;;;;;;5051741;28;20045;-61
2022/03/30 12:09:54;;;;;;;1.70;0.50;;;11.00;99.90;;;;;;5051582;28;20048;-61
2022/03/30 12:12:26;;;;;;;2.08;0.47;;;11.20;99.90;;;;;;5051342;28;20040;-61
2022/03/30 12:14:59;;;;;;;8.48;1.30;;;11.30;99.90;;;;;;5051142;28;20045;-61
2022/03/30 12:17:28;;;;;;;3.20;0.77;;;11.60;99.90;;;;;;5051327;28;20407;-61
2022/03/30 12:19:54;;;;;;;3.20;0.90;;;11.30;99.90;;;;;;5051211;28;20102;-61
2022/03/30 12:22:21;;;;;;;6.20;0.95;;;11.10;99.90;;;;;;5056858;28;20052;-61
2022/03/30 12:24:47;;;;;;;4.15;0.80;;;11.00;99.90;;;;;;5073581;28;20383;-61
2022/03/30 12:27:13;;;;;;;1.90;0.65;;;10.90;99.90;;;;;;5073476;28;20033;-61
2022/03/30 12:29:39;;;;;;;2.15;0.77;;;10.80;99.90;;;;;;5073466;28;20108;-61
2022/03/30 12:32:06;;;;;;;5.18;1.08;;;10.80;99.90;;;;;;5073378;28;20044;-61
2022/03/30 12:34:36;;;;;;;2.45;0.88;;;10.50;99.90;;;;;;5073055;28;20497;-61
2022/03/30 12:37:05;;;;;;;2.50;0.80;;;10.60;99.90;;;;;;5073100;28;20064;-61
2022/03/30 12:39:38;;;;;;;4.10;0.80;;;10.60;99.90;;;;;;5073311;28;20037;-61
2022/03/30 12:42:05;;;;;;;3.33;1.05;;;10.50;99.90;;;;;;5073186;28;20509;-61
2022/03/30 12:44:34;;;;;;;6.75;0.82;;;10.40;99.90;;;;;;5072973;28;20036;-61
2022/03/30 12:47:04;;;;;;;2.13;0.80;;;10.50;99.90;;;;;;5071649;28;20043;-61
2022/03/30 12:49:42;;;;;;;3.55;1.00;;;10.40;99.90;;;;;;5072830;28;20032;-62
2022/03/30 12:52:12;;;;;;;2.78;0.70;;;10.30;99.90;;;;;;5073149;28;20565;-61
2022/03/30 12:54:39;;;;;;;3.88;0.93;;;10.20;99.90;;;;;;5072838;28;20847;-61
2022/03/30 12:57:04;;;;;;;3.85;1.20;;;10.30;99.90;;;;;;5073091;28;20496;-61
2022/03/30 12:59:30;;;;;;;4.25;1.02;;;10.60;99.90;;;;;;5072668;28;20213;-61
2022/03/30 13:01:56;;;;;;;4.10;1.25;;;10.80;99.90;;;;;;5071053;28;20045;-62
2022/03/30 13:04:25;;;;;;;7.43;0.70;;;10.80;99.90;;;;;;5072640;28;20068;-61
2022/03/30 13:07:09;;;;;;;;;;;10.90;99.90;;;;;;5073053;28;20493;-61
2022/03/30 13:09:36;;;;;;;1.98;0.75;;;10.80;99.90;;;;;;5072438;28;19955;-61
2022/03/30 13:12:02;;;;;;;3.88;1.10;;;10.90;99.90;;;;;;5072481;28;20064;-61